M I D A S
Marine Information and Data Acquisition System
Tripno 842 of the Zeeleeuw from 2005-01-26 07:33:00 to 2005-01-26 13:04:23
Back to CruiseResearch ActivitiesStationsMapUnderway DataData graphs

EquipmentUnitsComments
TimeDGPSUTC
LatitudeDGPSDM.mWGS84
LongitudeDGPSDM.mWGS84
SpeedMeteo Stationm/sRelative wind speed
DirectionMeteo StationdegRelative wind direction
TemperatureMeteo Stationdeg CelciusAir temperature
PressureMeteo StationPaAtmospheric pressure
HumidityMeteo Station%Relative humidity
Missing or incorrect values are displayed as -999
Metereological data collected by the RV Zeeleeuw from 2005-01-26 07:33:28 to 2005-01-26 13:19:32
Time Latitude Longitude Speed Direction Temperature Pressure Humidity
2005-01-26 07:34 51°13.61 2°56.045 4.8 260 -0.3 103160 66
2005-01-26 07:35 51°13.639 2°55.972 7.2 293 -0.2 103150 66
2005-01-26 07:36 51°13.642 2°55.968 6 290 -0.2 103130 66
2005-01-26 07:37 51°13.669 2°55.91 3.2 220 -0.2 103150 66
2005-01-26 07:38 51°13.711 2°55.784 2.3 40 -0.2 103130 66
2005-01-26 07:39 51°13.722 2°55.723 4.2 14 -0.2 103100 66
2005-01-26 07:40 51°13.729 2°55.727 6.1 55 -0.2 103100 66
2005-01-26 07:41 51°13.785 2°55.67 6.2 33 -0.1 103110 66
2005-01-26 07:42 51°13.899 2°55.573 8 45 -0.1 103100 66
2005-01-26 07:43 51°14.031 2°55.48 10.3 45 -0.1 103110 67
2005-01-26 07:44 51°14.175 2°55.369 10.6 62 -999 103100 66
2005-01-26 07:45 51°14.3 2°55.19 9.7 79 0.1 103090 70
2005-01-26 07:46 51°14.4 2°54.956 13.8 102 0.5 103100 70
2005-01-26 07:47 51°14.455 2°54.649 12.7 115 0.7 103080 71
2005-01-26 07:48 51°14.423 2°54.283 9 138 0.7 103080 68
2005-01-26 07:49 51°14.307 2°53.951 4.7 175 0.7 103090 68
2005-01-26 07:50 51°14.185 2°53.618 7.8 155 0.9 103140 68
2005-01-26 07:51 51°14.061 2°53.279 6.2 133 1 103110 69
2005-01-26 07:52 51°13.944 2°52.926 3.2 181 1 103110 67
2005-01-26 07:53 51°13.812 2°52.58 7.3 165 0.9 103110 65
2005-01-26 07:54 51°13.684 2°52.226 5.3 165 0.9 103100 67
2005-01-26 07:55 51°13.566 2°51.866 8.3 139 0.9 103100 66
2005-01-26 07:56 51°13.446 2°51.506 8.1 152 0.9 103110 66
2005-01-26 07:57 51°13.323 2°51.15 6.1 154 0.9 103120 65
2005-01-26 07:58 51°13.186 2°50.801 8.5 170 0.9 103120 66
2005-01-26 07:59 51°13.058 2°50.435 4.8 163 0.8 103120 64
2005-01-26 08:00 51°12.933 2°50.074 4.9 148 0.9 103130 65
2005-01-26 08:01 51°12.796 2°49.71 6.4 147 0.9 103130 65
2005-01-26 08:02 51°12.672 2°49.351 7.6 166 0.9 103120 66
2005-01-26 08:03 51°12.541 2°48.99 4.6 170 0.9 103120 67
2005-01-26 08:04 51°12.41 2°48.625 3.8 166 1.2 103120 67
2005-01-26 08:05 51°12.276 2°48.26 4.4 168 1.4 103120 65
2005-01-26 08:06 51°12.15 2°47.895 8.7 169 1.1 103130 62
2005-01-26 08:07 51°12.021 2°47.527 5.9 179 1 103130 63
2005-01-26 08:08 51°11.896 2°47.16 6.2 167 1 103140 65
2005-01-26 08:09 51°11.781 2°46.803 7.8 168 1.1 103130 65
2005-01-26 08:10 51°11.661 2°46.44 6.4 172 1.1 103130 65
2005-01-26 08:11 51°11.544 2°46.081 5.8 162 1.2 103170 67
2005-01-26 08:12 51°11.436 2°45.722 8.1 133 1.6 103170 68
2005-01-26 08:13 51°11.349 2°45.336 6.9 226 1.4 103120 66
2005-01-26 08:14 51°11.284 2°44.954 8.4 134 1.3 103120 64
2005-01-26 08:15 51°11.221 2°44.555 5.9 138 1.2 103120 66
2005-01-26 08:16 51°11.154 2°44.15 6.7 164 1.2 103130 66
2005-01-26 08:17 51°11.085 2°43.744 6.8 137 1.2 103130 66
2005-01-26 08:18 51°11.012 2°43.338 6.1 148 1.2 103130 66
2005-01-26 08:19 51°10.94 2°42.939 3.4 166 1.2 103130 68
2005-01-26 08:20 51°10.867 2°42.534 5.6 163 1.3 103140 69
2005-01-26 08:21 51°10.799 2°42.121 5.8 122 1.3 103140 68
2005-01-26 08:22 51°10.725 2°41.711 7 124 1.3 103130 67
2005-01-26 08:23 51°10.657 2°41.304 6.5 139 1.3 103120 68
2005-01-26 08:24 51°10.589 2°40.897 5.8 163 1.3 103130 66
2005-01-26 08:25 51°10.524 2°40.49 4.5 136 1.2 103130 69
2005-01-26 08:26 51°10.453 2°40.096 3.2 138 1.4 103140 69
2005-01-26 08:27 51°10.39 2°39.709 8 143 1.5 103180 69
2005-01-26 08:28 51°10.327 2°39.305 8.2 150 1.4 103140 67
2005-01-26 08:29 51°10.265 2°38.912 7.6 142 1.4 103140 66
2005-01-26 08:30 51°10.206 2°38.515 5.7 116 1.4 103140 67
2005-01-26 08:31 51°10.143 2°38.119 8.2 146 1.3 103130 65
2005-01-26 08:32 51°10.083 2°37.728 8.5 145 1.3 103130 67
2005-01-26 08:33 51°10.027 2°37.323 6.1 163 1.5 103130 68
2005-01-26 08:34 51°9.97 2°36.929 6.1 139 1.5 103120 67
2005-01-26 08:35 51°9.914 2°36.539 7.3 142 1.5 103120 68
2005-01-26 08:36 51°9.873 2°36.14 8 134 1.6 103120 68
2005-01-26 08:37 51°9.936 2°35.784 12.1 79 1.5 103090 65
2005-01-26 08:38 51°10.128 2°35.722 19.6 35 1.5 103040 66
2005-01-26 08:39 51°10.278 2°35.908 18.2 24 1.5 103040 66
2005-01-26 08:40 51°10.429 2°36.107 19.3 15 1.6 103080 67
2005-01-26 08:41 51°10.587 2°36.285 20.4 23 1.5 103070 66
2005-01-26 08:42 51°10.744 2°36.454 20.3 23 1.5 103070 71
2005-01-26 08:43 51°10.912 2°36.613 19.4 24 1.2 103050 72
2005-01-26 08:44 51°11.077 2°36.769 17.6 30 1 103060 73
2005-01-26 08:45 51°11.236 2°36.927 19.8 29 1.1 103080 73
2005-01-26 08:46 51°11.398 2°37.082 19.8 18 1.2 103080 70
2005-01-26 08:47 51°11.566 2°37.242 18.2 21 1.3 103080 71
2005-01-26 08:48 51°11.73 2°37.402 16.5 20 1.3 103080 71
2005-01-26 08:49 51°11.897 2°37.563 19.5 27 1.2 103070 69
2005-01-26 08:50 51°12.063 2°37.727 19.3 25 1.3 103070 70
2005-01-26 08:51 51°12.228 2°37.89 19.1 27 1.3 103090 69
2005-01-26 08:52 51°12.393 2°38.048 18.3 31 1.3 103070 67
2005-01-26 08:53 51°12.554 2°38.205 19.1 14 1.5 103100 69
2005-01-26 08:54 51°12.728 2°38.349 17.8 19 1.5 103090 68
2005-01-26 08:55 51°12.897 2°38.487 18.7 33 1.4 103070 68
2005-01-26 08:56 51°13.08 2°38.599 20.2 40 1.5 103060 69
2005-01-26 08:57 51°13.264 2°38.698 20.2 31 1.5 103060 65
2005-01-26 08:58 51°13.453 2°38.798 18.3 32 1.5 103090 64
2005-01-26 08:59 51°13.64 2°38.892 17.7 28 1.5 103110 67
2005-01-26 09:00 51°13.835 2°38.875 19 44 1.6 103080 66
2005-01-26 09:01 51°14.036 2°38.843 14.9 61 1.5 103100 65
2005-01-26 09:02 51°14.196 2°38.639 11.1 94 1.5 103130 70
2005-01-26 09:03 51°14.206 2°38.277 4.5 152 1.5 103160 68
2005-01-26 09:04 51°14.111 2°37.903 3.4 173 1.4 103170 68
2005-01-26 09:05 51°14.026 2°37.528 3.1 173 1.4 103170 67
2005-01-26 09:06 51°13.918 2°37.16 2.2 147 1.6 103170 69
2005-01-26 09:07 51°13.816 2°36.79 2.3 177 1.7 103170 67
2005-01-26 09:08 51°13.709 2°36.417 2.7 208 1.9 103170 68
2005-01-26 09:09 51°13.611 2°36.036 2.3 173 1.9 103170 67
2005-01-26 09:10 51°13.495 2°35.679 2.5 163 2 103170 67
2005-01-26 09:11 51°13.382 2°35.326 4.2 178 2 103170 66
2005-01-26 09:12 51°13.266 2°34.967 2.1 192 2.2 103160 64
2005-01-26 09:13 51°13.146 2°34.616 4.7 217 2.2 103170 65
2005-01-26 09:14 51°13.034 2°34.254 2.7 221 2.1 103150 65
2005-01-26 09:15 51°12.906 2°33.915 4.7 189 2.1 103150 64
2005-01-26 09:16 51°12.762 2°33.58 4 213 2.1 103160 65
2005-01-26 09:17 51°12.622 2°33.255 6 210 2 103160 66
2005-01-26 09:18 51°12.492 2°32.917 3.4 237 2 103150 67
2005-01-26 09:19 51°12.374 2°32.564 3.6 218 2 103160 65
2005-01-26 09:20 51°12.267 2°32.209 4 212 2.2 103160 67
2005-01-26 09:21 51°12.159 2°31.85 2.6 175 2.4 103160 65
2005-01-26 09:22 51°12.065 2°31.471 2.6 173 2.3 103150 63
2005-01-26 09:23 51°11.973 2°31.097 4.1 145 2.5 103160 65
2005-01-26 09:24 51°11.875 2°30.711 3.1 158 2.5 103150 64
2005-01-26 09:25 51°11.783 2°30.329 4.5 159 2.5 103160 65
2005-01-26 09:26 51°11.685 2°29.951 4.4 162 2.5 103150 64
2005-01-26 09:27 51°11.59 2°29.565 3.3 215 2.3 103160 64
2005-01-26 09:28 51°11.495 2°29.19 3.6 180 2.4 103160 65
2005-01-26 09:29 51°11.401 2°28.797 1.7 185 2.3 103150 64
2005-01-26 09:30 51°11.309 2°28.404 2.1 205 2.3 103160 64
2005-01-26 09:31 51°11.241 2°28.003 3.3 168 2.4 103150 64
2005-01-26 09:32 51°11.18 2°27.601 3 156 2.3 103150 64
2005-01-26 09:33 51°11.116 2°27.205 1.4 233 2.2 103150 65
2005-01-26 09:34 51°11.053 2°26.816 1.9 149 2.1 103160 65
2005-01-26 09:35 51°10.988 2°26.426 0.9 122 2 103160 65
2005-01-26 09:36 51°10.925 2°26.042 4 163 2 103160 66
2005-01-26 09:37 51°10.91 2°25.655 6.4 126 2 103160 67
2005-01-26 09:38 51°10.986 2°25.311 13 85 2 103140 68
2005-01-26 09:39 51°11.171 2°25.174 15.4 55 2 103120 67
2005-01-26 09:40 51°11.365 2°25.258 15.9 34 1.9 103090 68
2005-01-26 09:41 51°11.539 2°25.41 17.1 28 2.1 103090 69
2005-01-26 09:42 51°11.71 2°25.563 16.1 30 1.9 103090 67
2005-01-26 09:43 51°11.877 2°25.732 15.2 29 1.9 103080 68
2005-01-26 09:44 51°12.038 2°25.894 17.4 30 1.9 103080 67
2005-01-26 09:45 51°12.205 2°26.078 16.6 23 1.9 103070 69
2005-01-26 09:46 51°12.369 2°26.259 16.6 20 2 103090 70
2005-01-26 09:47 51°12.526 2°26.451 15.9 27 1.9 103090 69
2005-01-26 09:48 51°12.682 2°26.65 17.2 26 1.9 103090 68
2005-01-26 09:49 51°12.827 2°26.836 18 26 1.9 103110 70
2005-01-26 09:50 51°12.981 2°27.03 18.8 29 1.8 103090 69
2005-01-26 09:51 51°13.131 2°27.225 16.1 17 1.8 103090 70
2005-01-26 09:52 51°13.286 2°27.425 18.1 25 1.9 103100 70
2005-01-26 09:53 51°13.434 2°27.615 15.4 20 1.8 103110 70
2005-01-26 09:54 51°13.591 2°27.81 18 27 1.9 103100 70
2005-01-26 09:55 51°13.74 2°28.002 16.2 28 1.8 103100 69
2005-01-26 09:56 51°13.89 2°28.197 15.1 25 1.8 103080 70
2005-01-26 09:57 51°14.038 2°28.385 16.1 20 1.8 103100 70
2005-01-26 09:58 51°14.19 2°28.577 18.9 26 1.8 103100 70
2005-01-26 09:59 51°14.345 2°28.77 17.2 27 1.9 103100 72
2005-01-26 10:00 51°14.494 2°28.96 16.4 24 1.9 103110 71
2005-01-26 10:01 51°14.651 2°29.158 15.6 24 2 103100 71
2005-01-26 10:02 51°14.802 2°29.353 16.7 23 1.9 103110 71
2005-01-26 10:03 51°14.957 2°29.548 17.2 22 1.8 103110 70
2005-01-26 10:04 51°15.108 2°29.743 18.4 26 1.8 103090 70
2005-01-26 10:05 51°15.257 2°29.942 17.8 15 1.9 103100 70
2005-01-26 10:06 51°15.41 2°30.144 18 17 1.8 103110 70
2005-01-26 10:07 51°15.556 2°30.337 16.5 22 1.9 103110 70
2005-01-26 10:08 51°15.705 2°30.533 17.2 24 1.9 103110 71
2005-01-26 10:09 51°15.86 2°30.737 17.8 18 1.9 103120 71
2005-01-26 10:10 51°16.006 2°30.936 15.2 13 1.9 103100 72
2005-01-26 10:11 51°16.161 2°31.141 15.4 16 1.5 103110 76
2005-01-26 10:12 51°16.313 2°31.346 17.4 21 1.3 103110 79
2005-01-26 10:13 51°16.466 2°31.549 15 20 1.2 103100 81
2005-01-26 10:14 51°16.616 2°31.753 16.8 29 1.3 103100 85
2005-01-26 10:15 51°16.77 2°31.956 17.6 25 1.2 103110 85
2005-01-26 10:16 51°16.931 2°32.144 15.4 24 1.2 103090 84
2005-01-26 10:17 51°17.091 2°32.335 15.9 24 1.2 103090 84
2005-01-26 10:18 51°17.248 2°32.524 16 26 1.3 103120 85
2005-01-26 10:19 51°17.398 2°32.703 18.9 17 1.2 103080 83
2005-01-26 10:20 51°17.551 2°32.887 16 16 1.3 103110 82
2005-01-26 10:21 51°17.711 2°33.077 15.3 21 1.4 103110 81
2005-01-26 10:22 51°17.874 2°33.273 13.7 23 1.4 103110 79
2005-01-26 10:23 51°18.031 2°33.467 14.8 22 1.5 103110 77
2005-01-26 10:24 51°18.195 2°33.664 17.7 21 1.6 103120 75
2005-01-26 10:25 51°18.353 2°33.861 15.5 22 1.5 103120 73
2005-01-26 10:26 51°18.503 2°34.044 17.1 21 1.6 103140 75
2005-01-26 10:27 51°18.657 2°34.233 15.9 13 1.5 103140 73
2005-01-26 10:28 51°18.812 2°34.424 16.4 20 1.7 103150 75
2005-01-26 10:29 51°18.966 2°34.614 16 24 1.5 103130 73
2005-01-26 10:30 51°19.125 2°34.804 16.8 23 1.5 103120 74
2005-01-26 10:31 51°19.278 2°34.992 15.6 21 1.5 103110 73
2005-01-26 10:32 51°19.437 2°35.184 14.3 24 1.5 103120 74
2005-01-26 10:33 51°19.593 2°35.376 14.7 21 1.4 103140 74
2005-01-26 10:34 51°19.747 2°35.566 16.9 21 1.5 103150 73
2005-01-26 10:35 51°19.902 2°35.768 14.6 22 1.6 103140 74
2005-01-26 10:36 51°20.005 2°36.039 15.8 3 1.6 103160 73
2005-01-26 10:37 51°20.083 2°36.346 15.9 10 1.7 103150 74
2005-01-26 10:38 51°20.17 2°36.65 15 11 1.7 103150 73
2005-01-26 10:39 51°20.253 2°36.945 13.5 3 1.7 103150 73
2005-01-26 10:40 51°20.341 2°37.245 15.8 2 1.7 103160 72
2005-01-26 10:41 51°20.43 2°37.545 17.3 11 1.6 103150 72
2005-01-26 10:42 51°20.478 2°37.869 17.9 349 1.6 103130 72
2005-01-26 10:43 51°20.475 2°38.21 16.2 346 1.8 103140 73
2005-01-26 10:44 51°20.456 2°38.55 15.3 342 1.8 103140 72
2005-01-26 10:45 51°20.436 2°38.89 15.2 349 1.8 103140 72
2005-01-26 10:46 51°20.42 2°39.232 14.2 354 1.7 103130 71
2005-01-26 10:47 51°20.415 2°39.572 16.1 353 1.7 103140 71
2005-01-26 10:48 51°20.416 2°39.912 13.2 348 1.7 103130 70
2005-01-26 10:49 51°20.413 2°40.259 17.3 341 1.8 103130 70
2005-01-26 10:50 51°20.4 2°40.606 18.9 344 1.8 103140 69
2005-01-26 10:51 51°20.389 2°40.944 17.6 345 1.8 103130 69
2005-01-26 10:52 51°20.375 2°41.295 17.1 344 1.8 103130 70
2005-01-26 10:53 51°20.355 2°41.635 16.8 345 1.8 103120 69
2005-01-26 10:54 51°20.339 2°41.977 14.9 340 1.8 103110 69
2005-01-26 10:55 51°20.316 2°42.33 16 343 1.9 103120 70
2005-01-26 10:56 51°20.297 2°42.678 16.9 340 1.8 103130 69
2005-01-26 10:57 51°20.277 2°43.026 17.1 343 1.8 103120 68
2005-01-26 10:58 51°20.256 2°43.373 16.3 352 1.7 103140 68
2005-01-26 10:59 51°20.235 2°43.712 16 335 1.8 103170 68
2005-01-26 11:00 51°20.213 2°44.057 16.6 344 1.8 103140 69
2005-01-26 11:01 51°20.193 2°44.404 16.7 350 1.8 103130 69
2005-01-26 11:02 51°20.175 2°44.756 16.7 345 1.7 103140 67
2005-01-26 11:03 51°20.16 2°45.105 16.7 346 1.6 103130 68
2005-01-26 11:04 51°20.142 2°45.454 15.1 339 1.7 103140 67
2005-01-26 11:05 51°20.124 2°45.814 17.8 343 1.8 103130 70
2005-01-26 11:06 51°20.107 2°46.162 15.1 341 1.7 103130 68
2005-01-26 11:07 51°20.087 2°46.522 15 344 1.7 103150 68
2005-01-26 11:08 51°20.036 2°46.865 14.1 335 1.7 103130 68
2005-01-26 11:09 51°19.947 2°47.196 14.7 332 1.6 103110 69
2005-01-26 11:10 51°19.857 2°47.532 15.5 327 1.6 103130 69
2005-01-26 11:11 51°19.771 2°47.862 15.6 335 1.6 103150 69
2005-01-26 11:12 51°19.663 2°48.18 13.5 329 1.6 103130 69
2005-01-26 11:13 51°19.531 2°48.48 15.3 318 1.6 103140 69
2005-01-26 11:14 51°19.398 2°48.778 15.2 317 1.6 103140 68
2005-01-26 11:15 51°19.273 2°49.085 14.2 329 1.7 103150 70
2005-01-26 11:16 51°19.146 2°49.392 15 328 1.7 103130 70
2005-01-26 11:17 51°19.017 2°49.698 14.2 322 1.6 103130 69
2005-01-26 11:18 51°18.866 2°49.987 13.4 318 1.6 103130 70
2005-01-26 11:19 51°18.684 2°50.225 11.9 321 1.6 103140 70
2005-01-26 11:20 51°18.5 2°50.446 13.7 307 1.6 103140 70
2005-01-26 11:21 51°18.317 2°50.684 12.3 308 1.6 103150 69
2005-01-26 11:22 51°18.132 2°50.922 11.5 229 1.6 103160 69
2005-01-26 11:23 51°17.95 2°51.16 13.9 319 1.6 103150 69
2005-01-26 11:24 51°17.768 2°51.395 11.8 317 1.5 103140 69
2005-01-26 11:25 51°17.585 2°51.635 14.5 316 1.6 103140 69
2005-01-26 11:26 51°17.414 2°51.891 14.1 229 1.6 103130 68
2005-01-26 11:27 51°17.24 2°52.147 13.2 317 1.5 103140 68
2005-01-26 11:28 51°17.063 2°52.392 12.8 324 1.6 103140 69
2005-01-26 11:29 51°16.907 2°52.671 16.1 319 1.6 103130 69
2005-01-26 11:30 51°16.788 2°52.989 14.1 324 1.5 103120 68
2005-01-26 11:31 51°16.739 2°53.345 13.7 346 1.5 103110 69
2005-01-26 11:32 51°16.769 2°53.705 16.7 355 1.5 103110 69
2005-01-26 11:33 51°16.843 2°54.046 16.3 3 1.4 103090 68
2005-01-26 11:34 51°16.94 2°54.375 16.6 358 1.4 103110 70
2005-01-26 11:35 51°17.036 2°54.705 17.6 1 1.5 103110 70
2005-01-26 11:36 51°17.128 2°55.039 15.7 358 1.4 103110 69
2005-01-26 11:37 51°17.222 2°55.377 17.5 359 1.4 103090 69
2005-01-26 11:38 51°17.314 2°55.714 15.1 7 1.4 103110 69
2005-01-26 11:39 51°17.413 2°56.047 16.4 351 1.4 103100 70
2005-01-26 11:40 51°17.513 2°56.381 17.7 356 1.4 103110 70
2005-01-26 11:41 51°17.619 2°56.717 16.5 359 1.4 103120 69
2005-01-26 11:42 51°17.73 2°57.041 15.2 355 1.5 103120 72
2005-01-26 11:43 51°17.843 2°57.374 16.6 5 1.4 103110 71
2005-01-26 11:44 51°17.958 2°57.706 17.1 9 1.4 103100 70
2005-01-26 11:45 51°18.07 2°58.038 15.7 1 1.4 103110 70
2005-01-26 11:46 51°18.179 2°58.366 18 6 1.3 103100 70
2005-01-26 11:47 51°18.293 2°58.705 17.1 358 1.3 103100 70
2005-01-26 11:48 51°18.395 2°59.047 18.9 351 1.4 103090 71
2005-01-26 11:49 51°18.489 2°59.405 16.2 355 1.5 103090 72
2005-01-26 11:50 51°18.574 2°59.762 15.1 357 1.6 103120 72
2005-01-26 11:51 51°18.641 3°0.135 16 351 1.5 103110 71
2005-01-26 11:52 51°18.668 3°0.512 18 346 1.5 103090 71
2005-01-26 11:53 51°18.679 3°0.9 16.9 337 1.5 103090 70
2005-01-26 11:54 51°18.69 3°1.287 16.6 338 1.6 103090 71
2005-01-26 11:55 51°18.706 3°1.667 15.9 347 1.6 103080 72
2005-01-26 11:56 51°18.768 3°2.041 15.9 357 1.6 103100 71
2005-01-26 11:57 51°18.888 3°2.386 18 359 1.7 103100 72
2005-01-26 11:58 51°19.01 3°2.72 16.6 -999 1.6 103080 69
2005-01-26 11:59 51°19.106 3°3.067 14.4 343 1.5 103100 69
2005-01-26 12:00 51°18.999 3°3.399 12.2 309 1.6 103090 71
2005-01-26 12:01 51°18.802 3°3.47 6.1 263 1.6 103130 71
2005-01-26 12:02 51°18.64 3°3.268 2.7 200 1.6 103150 70
2005-01-26 12:03 51°18.518 3°3.004 3.3 233 1.6 103140 71
2005-01-26 12:04 51°18.397 3°2.736 0.9 225 1.6 103140 70
2005-01-26 12:05 51°18.277 3°2.472 1.6 147 1.7 103140 70
2005-01-26 12:06 51°18.157 3°2.213 3.3 194 1.8 103130 71
2005-01-26 12:07 51°18.052 3°1.936 2.3 93 2 103120 71
2005-01-26 12:08 51°17.943 3°1.663 3.3 131 2 103120 71
2005-01-26 12:09 51°17.843 3°1.383 3.8 129 1.9 103120 69
2005-01-26 12:10 51°17.741 3°1.107 2.4 140 1.8 103120 69
2005-01-26 12:11 51°17.632 3°0.834 3.3 128 1.8 103110 70
2005-01-26 12:12 51°17.531 3°0.562 3.8 142 1.7 103110 69
2005-01-26 12:13 51°17.433 3°0.283 2.6 150 1.6 103110 68
2005-01-26 12:14 51°17.334 3°0.002 2 136 1.6 103110 69
2005-01-26 12:15 51°17.233 2°59.73 2 149 1.6 103100 70
2005-01-26 12:16 51°17.134 2°59.453 2.2 164 1.6 103100 71
2005-01-26 12:17 51°17.031 2°59.176 2.3 141 1.7 103100 71
2005-01-26 12:18 51°16.928 2°58.9 1.6 117 1.7 103100 70
2005-01-26 12:19 51°16.824 2°58.629 2.6 132 1.7 103100 69
2005-01-26 12:20 51°16.73 2°58.352 3.3 138 1.7 103090 69
2005-01-26 12:21 51°16.636 2°58.07 2.3 136 1.6 103090 69
2005-01-26 12:22 51°16.543 2°57.793 2.6 122 1.6 103100 70
2005-01-26 12:23 51°16.446 2°57.515 5.2 130 1.7 103080 70
2005-01-26 12:24 51°16.352 2°57.235 3.1 153 1.7 103090 69
2005-01-26 12:25 51°16.257 2°56.953 4.1 121 1.6 103090 70
2005-01-26 12:26 51°16.163 2°56.673 3.5 144 1.7 103080 70
2005-01-26 12:27 51°16.069 2°56.392 4 134 1.6 103080 69
2005-01-26 12:28 51°16.047 2°56.232 7.3 123 1.6 103090 68
2005-01-26 12:29 51°16.069 2°56.188 9.1 109 1.6 103050 71
2005-01-26 12:30 51°16.081 2°56.2 10.7 102 1.7 103070 70
2005-01-26 12:31 51°16.09 2°56.215 10.8 104 1.6 103050 69
2005-01-26 12:32 51°16.096 2°56.232 10.5 105 1.7 103060 70
2005-01-26 12:33 51°16.099 2°56.251 10.1 115 1.7 103060 69
2005-01-26 12:34 51°16.101 2°56.274 9 131 1.6 103070 68
2005-01-26 12:35 51°16.104 2°56.297 10.7 126 1.7 103060 69
2005-01-26 12:36 51°16.107 2°56.319 9.5 119 1.7 103060 70
2005-01-26 12:37 51°16.111 2°56.341 9.4 131 1.8 103060 72
2005-01-26 12:38 51°16.116 2°56.363 8.7 130 1.7 103060 69
2005-01-26 12:39 51°16.121 2°56.382 8.1 126 1.6 103050 70
2005-01-26 12:40 51°16.128 2°56.401 8.9 118 1.7 103060 72
2005-01-26 12:41 51°16.134 2°56.421 9.6 114 1.7 103050 70
2005-01-26 12:42 51°16.139 2°56.442 9.7 111 1.6 103050 69
2005-01-26 12:43 51°16.144 2°56.462 10.1 125 1.7 103060 70
2005-01-26 12:44 51°16.148 2°56.484 9.1 120 1.7 103060 70
2005-01-26 12:45 51°16.152 2°56.506 9.8 123 1.8 103060 70
2005-01-26 12:46 51°16.155 2°56.528 9.5 124 1.7 103060 69
2005-01-26 12:47 51°16.16 2°56.55 9.7 131 1.7 103050 71
2005-01-26 12:48 51°16.165 2°56.572 8.7 111 1.6 103050 69
2005-01-26 12:49 51°16.168 2°56.595 9.2 116 1.7 103050 68
2005-01-26 12:50 51°16.171 2°56.617 8.9 113 1.7 103060 69
2005-01-26 12:51 51°16.174 2°56.638 11.5 122 1.7 103050 69
2005-01-26 12:52 51°16.176 2°56.659 11.1 124 1.7 103050 67
2005-01-26 12:53 51°16.189 2°56.649 8 128 1.6 103050 66
2005-01-26 12:54 51°16.155 2°56.507 4.6 222 1.8 103060 67
2005-01-26 12:55 51°15.992 2°56.336 3.1 215 1.8 103070 67
2005-01-26 12:56 51°15.841 2°56.125 3.4 235 1.8 103070 67
2005-01-26 12:57 51°15.691 2°55.908 2 169 1.8 103070 67
2005-01-26 12:58 51°15.538 2°55.695 2.9 199 1.9 103060 67
2005-01-26 12:59 51°15.387 2°55.484 2.7 202 1.8 103070 66
2005-01-26 13:00 51°15.236 2°55.272 2.5 225 1.8 103060 66
2005-01-26 13:01 51°15.081 2°55.064 3.6 231 1.8 103060 67
2005-01-26 13:02 51°14.906 2°54.894 4 247 1.9 103040 67
2005-01-26 13:03 51°14.717 2°54.799 6.9 265 1.9 103040 67
2005-01-26 13:04 51°14.513 2°54.854 9.8 284 2 103020 68
2005-01-26 13:05 51°14.359 2°55.071 12.1 306 2.1 103010 67
2005-01-26 13:06 51°14.232 2°55.307 10.2 304 2.1 103030 66
2005-01-26 13:07 51°14.105 2°55.427 6.2 298 2.1 103050 66
2005-01-26 13:08 51°13.986 2°55.514 8.6 260 2.1 103050 65
2005-01-26 13:09 51°13.877 2°55.6 6.1 289 2.1 103050 65
2005-01-26 13:10 51°13.772 2°55.706 4.5 315 2.2 103040 66
2005-01-26 13:11 51°13.691 2°55.837 6.1 309 2.2 103030 66
2005-01-26 13:12 51°13.634 2°55.978 6.3 316 2.3 103050 65
2005-01-26 13:13 51°13.602 2°56.079 6.8 315 2.3 103040 66
2005-01-26 13:14 51°13.595 2°56.1 2.7 259 2.3 103040 66
2005-01-26 13:15 51°13.594 2°56.105 3.9 313 2.3 103040 66
2005-01-26 13:16 51°13.593 2°56.105 5.5 291 2.3 103040 65
2005-01-26 13:17 51°13.593 2°56.105 3.6 292 2.2 103040 64
2005-01-26 13:18 51°13.594 2°56.106 6.3 300 2.3 103040 65